Terminal Aerodrome Forecast
Issued by NWS

Home | Current Version | Previous Version | Text Only | Print | Product List | Glossary On
Versions: 1 2 3 4 5 6 7 8 9 10 11 12 13 14 15 16 17 18 19 20 21 22 23 24 25 26 27 28 29 30 31 32 33 34
000
FTAK31 PAFA 172338
TAFAOM
TAF
PAOM 172338Z 1800/1824 28015KT P6SM -SN SCT015 OVC025
     FM180900 28008KT 6SM -SN BR BKN015 OVC025
     FM181200 12018KT 6SM -SN BR BKN015 OVC025
     FM181800 10025G35KT 1 1/2SM -SN BLSN BKN003 OVC007=

USA.gov is the U.S. government's official web portal to all federal, state and local government web resources and services.